createdAt,value
2024-02-24T00:02:18.961Z,5.90
2024-02-24T00:04:47.223Z,5.90
2024-02-24T00:07:15.402Z,6.10
2024-02-24T00:09:43.605Z,6.40
2024-02-24T00:12:11.783Z,6.50
2024-02-24T00:14:39.926Z,6.60
2024-02-24T00:17:09.638Z,6.70
2024-02-24T00:19:37.849Z,6.60
2024-02-24T00:22:06.380Z,6.60
2024-02-24T00:24:34.423Z,6.60
2024-02-24T00:27:02.580Z,6.60
2024-02-24T00:29:30.977Z,6.70
2024-02-24T00:31:59.228Z,6.70
2024-02-24T00:34:28.669Z,6.80
2024-02-24T00:36:56.904Z,6.70
2024-02-24T00:39:25.026Z,6.70
2024-02-24T00:41:53.550Z,6.70
2024-02-24T00:44:21.806Z,6.60
2024-02-24T00:46:50.302Z,6.60
2024-02-24T00:49:18.437Z,6.60
2024-02-24T00:51:48.151Z,6.60
2024-02-24T00:54:16.581Z,6.60
2024-02-24T00:56:44.885Z,6.50
2024-02-24T00:59:13.187Z,6.40
2024-02-24T01:01:41.404Z,6.40
2024-02-24T01:04:09.566Z,6.50
2024-02-24T01:06:37.737Z,6.50
2024-02-24T01:09:07.298Z,6.70
2024-02-24T01:11:35.547Z,6.70
2024-02-24T01:14:03.945Z,6.70
2024-02-24T01:16:32.901Z,6.70
2024-02-24T01:19:01.075Z,6.80
2024-02-24T01:21:29.322Z,6.80
2024-02-24T01:23:57.549Z,6.80
2024-02-24T01:26:27.240Z,6.90
2024-02-24T01:28:55.477Z,6.80
2024-02-24T01:31:23.824Z,6.80
2024-02-24T01:33:52.941Z,6.90
2024-02-24T01:36:21.162Z,6.80
2024-02-24T01:38:49.346Z,6.80
2024-02-24T01:41:17.586Z,6.80
2024-02-24T01:43:47.217Z,6.80
2024-02-24T01:46:16.432Z,6.80
2024-02-24T01:48:45.055Z,6.90
2024-02-24T01:51:15.393Z,6.80
2024-02-24T01:53:44.623Z,7.00
2024-02-24T01:56:13.325Z,6.90
2024-02-24T01:58:43.439Z,6.80
2024-02-24T02:01:13.074Z,6.80
2024-02-24T02:03:41.255Z,6.70
2024-02-24T02:06:09.531Z,6.70
2024-02-24T02:08:37.690Z,6.70
2024-02-24T02:11:06.219Z,6.70
2024-02-24T02:13:34.496Z,6.80
2024-02-24T02:16:03.024Z,6.80
2024-02-24T02:18:35.477Z,6.70
2024-02-24T02:21:05.952Z,6.70
2024-02-24T02:23:35.976Z,6.60
2024-02-24T02:26:04.753Z,6.50
2024-02-24T02:28:32.976Z,6.50
2024-02-24T02:31:03.429Z,6.50
2024-02-24T02:33:31.714Z,6.50
2024-02-24T02:35:59.907Z,6.50
2024-02-24T02:38:27.943Z,6.40
2024-02-24T02:40:57.522Z,6.40
2024-02-24T02:43:25.584Z,6.60
2024-02-24T02:45:53.697Z,6.60
2024-02-24T02:48:21.917Z,6.60
2024-02-24T02:50:50.225Z,6.50
2024-02-24T02:53:19.214Z,6.50
2024-02-24T02:55:47.631Z,6.50
2024-02-24T02:58:17.345Z,6.40
2024-02-24T03:00:48.542Z,6.50
2024-02-24T03:03:17.040Z,6.50
2024-02-24T03:05:45.580Z,6.60
2024-02-24T03:08:13.781Z,6.60
2024-02-24T03:10:42.028Z,6.40
2024-02-24T03:13:10.254Z,6.40
2024-02-24T03:15:39.955Z,6.30
2024-02-24T03:18:08.321Z,6.50
2024-02-24T03:20:36.591Z,6.40
2024-02-24T03:23:06.064Z,6.30
2024-02-24T03:25:34.231Z,6.30
2024-02-24T03:28:02.326Z,6.40
2024-02-24T03:30:30.396Z,6.20
2024-02-24T03:32:59.987Z,6.20
2024-02-24T03:35:28.209Z,6.20
2024-02-24T03:37:57.746Z,6.30
2024-02-24T03:40:25.894Z,6.20
2024-02-24T03:42:53.981Z,6.20
2024-02-24T03:45:22.220Z,6.20
2024-02-24T03:47:50.626Z,6.10
2024-02-24T03:50:20.843Z,6.10
2024-02-24T03:52:49.343Z,6.10
2024-02-24T03:55:17.554Z,6.10
2024-02-24T03:57:45.709Z,6.10
2024-02-24T04:00:15.085Z,6.10
2024-02-24T04:02:44.889Z,6.20
2024-02-24T04:05:13.558Z,6.10
2024-02-24T04:07:43.064Z,6.20
2024-02-24T04:10:12.252Z,6.10
2024-02-24T04:12:40.527Z,6.10
2024-02-24T04:15:09.090Z,6.20
2024-02-24T04:17:37.378Z,6.20
2024-02-24T04:20:06.240Z,6.20
2024-02-24T04:22:34.320Z,6.20
2024-02-24T04:25:04.019Z,6.20
2024-02-24T04:27:32.049Z,6.20
2024-02-24T04:30:00.304Z,6.20
2024-02-24T04:32:29.490Z,6.20
2024-02-24T04:34:58.023Z,6.10
2024-02-24T04:37:26.143Z,6.10
2024-02-24T04:39:54.484Z,6.00
2024-02-24T04:42:25.368Z,6.10
2024-02-24T04:44:53.689Z,6.10
2024-02-24T04:47:24.332Z,6.10
2024-02-24T04:49:52.656Z,6.10
2024-02-24T04:52:20.724Z,6.10
2024-02-24T04:54:48.962Z,6.10
2024-02-24T04:57:17.039Z,6.00
2024-02-24T04:59:46.689Z,6.10
2024-02-24T05:02:15.086Z,6.10
2024-02-24T05:04:43.248Z,6.10
2024-02-24T05:07:11.308Z,6.00
2024-02-24T05:09:39.437Z,6.00
2024-02-24T05:12:07.902Z,6.00
2024-02-24T05:14:38.738Z,6.00
2024-02-24T05:17:09.489Z,6.00
2024-02-24T05:19:37.938Z,6.10
2024-02-24T05:22:06.343Z,6.10
2024-02-24T05:24:34.700Z,6.10
2024-02-24T05:27:03.280Z,6.30
2024-02-24T05:29:31.585Z,6.30
2024-02-24T05:31:59.907Z,6.30
2024-02-24T05:34:29.567Z,6.30
2024-02-24T05:36:57.741Z,6.20
2024-02-24T05:39:26.018Z,6.30
2024-02-24T05:41:55.282Z,6.20
2024-02-24T05:44:23.677Z,6.20
2024-02-24T05:46:52.162Z,6.30
2024-02-24T05:49:20.359Z,6.30
2024-02-24T05:51:49.863Z,6.30
2024-02-24T05:54:17.885Z,6.30
2024-02-24T05:56:46.269Z,6.20
2024-02-24T05:59:14.484Z,6.30
2024-02-24T06:01:42.699Z,6.20
2024-02-24T06:04:10.977Z,6.20
2024-02-24T06:06:39.257Z,6.20
2024-02-24T06:09:08.979Z,6.30
2024-02-24T06:11:37.302Z,6.20
2024-02-24T06:14:05.638Z,6.20
2024-02-24T06:16:33.992Z,6.20
2024-02-24T06:19:02.281Z,6.20
2024-02-24T06:21:32.088Z,6.20
2024-02-24T06:24:00.150Z,6.20
2024-02-24T06:26:29.808Z,6.20
2024-02-24T06:28:58.059Z,6.20
2024-02-24T06:31:26.513Z,6.20
2024-02-24T06:33:55.620Z,6.20
2024-02-24T06:36:23.943Z,6.00
2024-02-24T06:38:52.049Z,6.00
2024-02-24T06:41:20.448Z,6.10
2024-02-24T06:43:49.925Z,6.00
2024-02-24T06:46:17.937Z,5.90
2024-02-24T06:48:47.232Z,6.00
2024-02-24T06:51:15.721Z,5.90
2024-02-24T06:53:45.006Z,6.00
2024-02-24T06:56:13.516Z,6.10
2024-02-24T06:58:42.027Z,6.10
2024-02-24T07:01:12.100Z,6.00
2024-02-24T07:03:40.349Z,6.00
2024-02-24T07:06:08.752Z,5.90
2024-02-24T07:08:36.956Z,5.90
2024-02-24T07:11:05.247Z,5.80
2024-02-24T07:13:33.321Z,5.90
2024-02-24T07:16:01.490Z,6.00
2024-02-24T07:18:30.948Z,6.10
2024-02-24T07:21:00.622Z,5.90
2024-02-24T07:23:30.548Z,6.00
2024-02-24T07:25:59.907Z,6.10
2024-02-24T07:28:28.050Z,6.10
2024-02-24T07:30:56.685Z,6.10
2024-02-24T07:33:25.066Z,6.00
2024-02-24T07:35:54.656Z,5.90
2024-02-24T07:38:22.812Z,6.10
2024-02-24T07:40:51.009Z,6.00
2024-02-24T07:43:19.171Z,6.00
2024-02-24T07:45:47.449Z,6.10
2024-02-24T07:48:15.864Z,6.10
2024-02-24T07:50:44.195Z,6.10
2024-02-24T07:53:13.689Z,6.10
2024-02-24T07:55:41.774Z,6.00
2024-02-24T07:58:10.663Z,5.90
2024-02-24T08:00:38.834Z,5.90
2024-02-24T08:03:07.205Z,6.10
2024-02-24T08:05:35.387Z,6.00
2024-02-24T08:08:04.103Z,6.00
2024-02-24T08:10:33.715Z,5.90
2024-02-24T08:13:02.488Z,6.00
2024-02-24T08:15:30.745Z,6.00
2024-02-24T08:17:59.519Z,6.10
2024-02-24T08:20:28.212Z,6.60
2024-02-24T08:22:56.944Z,7.00
2024-02-24T08:25:25.188Z,7.40
2024-02-24T08:27:55.393Z,7.80
2024-02-24T08:30:23.880Z,8.10
2024-02-24T08:32:52.976Z,8.60
2024-02-24T08:35:21.578Z,9.10
2024-02-24T08:37:49.780Z,9.70
2024-02-24T08:40:18.349Z,10.30
2024-02-24T08:42:46.756Z,10.80
2024-02-24T08:45:16.603Z,11.40
2024-02-24T08:47:44.937Z,11.90
2024-02-24T08:50:13.416Z,12.10
2024-02-24T08:52:46.798Z,12.40
2024-02-24T08:55:18.714Z,12.50
2024-02-24T08:57:47.061Z,12.90
2024-02-24T09:00:17.487Z,13.30
2024-02-24T09:02:45.840Z,13.50
2024-02-24T09:05:14.205Z,13.90
2024-02-24T09:07:42.442Z,14.00
2024-02-24T09:10:11.230Z,14.20
2024-02-24T09:12:39.845Z,14.40
2024-02-24T09:15:08.814Z,14.40
2024-02-24T09:17:38.372Z,15.00
2024-02-24T09:20:09.916Z,14.60
2024-02-24T09:22:38.248Z,14.30
2024-02-24T09:25:06.953Z,14.70
2024-02-24T09:27:35.172Z,15.50
2024-02-24T09:30:03.387Z,16.00
2024-02-24T09:32:31.835Z,16.30
2024-02-24T09:35:01.558Z,16.60
2024-02-24T09:37:29.741Z,16.70
2024-02-24T09:39:59.501Z,16.10
2024-02-24T09:42:29.119Z,17.20
2024-02-24T09:45:00.248Z,18.10
2024-02-24T09:47:29.037Z,18.70
2024-02-24T09:49:58.844Z,18.80
2024-02-24T09:52:29.566Z,19.40
2024-02-24T09:54:57.729Z,19.90
2024-02-24T09:57:31.090Z,20.10
2024-02-24T09:59:59.754Z,20.30
2024-02-24T10:02:28.127Z,20.60
2024-02-24T10:04:56.760Z,19.40
2024-02-24T10:07:25.492Z,18.60
2024-02-24T10:09:55.421Z,18.50
2024-02-24T10:12:23.613Z,18.30
2024-02-24T10:14:51.839Z,17.80
2024-02-24T10:17:20.118Z,17.30
2024-02-24T10:19:48.712Z,17.20
2024-02-24T10:22:18.913Z,17.10
2024-02-24T10:24:48.293Z,16.90
2024-02-24T10:27:19.548Z,17.40
2024-02-24T10:29:52.668Z,18.10
2024-02-24T10:32:22.604Z,18.50
2024-02-24T10:34:51.342Z,18.30
2024-02-24T10:37:19.746Z,18.60
2024-02-24T10:39:51.934Z,18.70
2024-02-24T10:42:23.778Z,18.60
2024-02-24T10:44:54.146Z,18.50
2024-02-24T10:47:23.418Z,17.60
2024-02-24T10:49:51.578Z,16.60
2024-02-24T10:52:21.590Z,15.90
2024-02-24T10:54:52.398Z,16.10
2024-02-24T10:57:22.571Z,15.60
2024-02-24T10:59:50.908Z,14.80
2024-02-24T11:02:19.222Z,14.00
2024-02-24T11:04:47.747Z,13.40
2024-02-24T11:07:21.417Z,14.20
2024-02-24T11:09:53.230Z,13.90
2024-02-24T11:12:24.236Z,13.80
2024-02-24T11:14:54.219Z,13.80
2024-02-24T11:17:47.142Z,13.20
2024-02-24T11:20:56.676Z,13.60
2024-02-24T11:23:26.238Z,14.90
2024-02-24T11:26:27.802Z,17.00
2024-02-24T11:29:08.337Z,16.90
2024-02-24T11:31:38.096Z,15.90
2024-02-24T11:34:09.141Z,14.20
2024-02-24T11:36:40.434Z,14.00
2024-02-24T11:39:10.057Z,14.00
2024-02-24T11:41:41.226Z,14.00
2024-02-24T11:44:12.199Z,13.80
2024-02-24T11:46:41.452Z,13.50
2024-02-24T11:49:09.623Z,13.40
2024-02-24T11:51:41.461Z,13.10
2024-02-24T12:12:28.196Z,12.40
2024-02-24T12:14:56.335Z,12.30
2024-02-24T12:17:24.547Z,12.50
2024-02-24T12:19:52.806Z,12.50
2024-02-24T12:22:21.262Z,12.40
2024-02-24T12:24:49.645Z,12.40
2024-02-24T12:50:48.469Z,11.60
2024-02-24T12:53:17.236Z,11.70
2024-02-24T12:55:45.486Z,11.80
2024-02-24T12:58:13.664Z,11.90
2024-02-24T13:00:42.055Z,11.70
2024-02-24T13:03:10.282Z,11.50
2024-02-24T13:05:38.538Z,11.60
2024-02-24T13:08:10.845Z,11.50
2024-02-24T13:10:39.222Z,11.50
2024-02-24T13:13:07.407Z,11.40
2024-02-24T13:15:35.690Z,11.10
2024-02-24T13:18:04.155Z,11.30
2024-02-24T13:20:32.399Z,11.40
2024-02-24T13:23:00.719Z,11.40
2024-02-24T13:25:30.347Z,11.40
2024-02-24T13:27:58.550Z,11.40
2024-02-24T13:30:26.604Z,11.30
2024-02-24T13:32:54.735Z,11.40
2024-02-24T13:35:22.888Z,11.50
2024-02-24T13:37:51.020Z,11.60
2024-02-24T13:40:22.324Z,11.50
2024-02-24T13:42:51.756Z,11.50
2024-02-24T13:45:20.089Z,11.40
2024-02-24T13:47:50.041Z,11.40
2024-02-24T13:50:21.227Z,11.20
2024-02-24T13:52:49.354Z,11.10
2024-02-24T13:55:17.635Z,11.10
2024-02-24T13:57:45.845Z,11.00
2024-02-24T14:00:16.644Z,11.20
2024-02-24T14:02:44.998Z,11.10
2024-02-24T14:05:14.299Z,11.10
2024-02-24T14:07:42.702Z,11.20
2024-02-24T14:10:11.342Z,11.20
2024-02-24T14:12:39.601Z,11.30
2024-02-24T14:15:08.650Z,11.30
2024-02-24T14:17:39.361Z,11.40
2024-02-24T14:20:19.549Z,11.30
2024-02-24T14:22:53.283Z,11.30
2024-02-24T14:25:21.459Z,11.10
2024-02-24T14:27:49.727Z,11.00
2024-02-24T14:30:17.819Z,11.10
2024-02-24T14:32:47.371Z,11.00
2024-02-24T14:35:20.566Z,11.00
2024-02-24T14:37:48.685Z,10.90
2024-02-24T14:40:17.047Z,10.80
2024-02-24T14:42:45.519Z,10.80
2024-02-24T14:45:13.834Z,10.80
2024-02-24T14:47:42.023Z,10.50
2024-02-24T14:50:11.991Z,10.70
2024-02-24T14:52:40.971Z,10.60
2024-02-24T14:55:11.517Z,10.60
2024-02-24T14:57:39.822Z,10.50
2024-02-24T15:00:13.940Z,10.60
2024-02-24T15:02:52.275Z,10.50
2024-02-24T15:05:29.241Z,10.50
2024-02-24T15:07:58.194Z,10.50
2024-02-24T15:10:26.320Z,10.60
2024-02-24T15:12:55.127Z,10.60
2024-02-24T15:15:23.464Z,10.60
2024-02-24T15:17:53.828Z,10.60
2024-02-24T15:20:22.528Z,10.50
2024-02-24T15:22:52.145Z,10.40
2024-02-24T15:25:21.695Z,10.50
2024-02-24T15:27:49.777Z,10.50
2024-02-24T15:30:17.885Z,10.60
2024-02-24T15:32:46.070Z,10.60
2024-02-24T15:35:14.527Z,10.70
2024-02-24T15:37:42.721Z,10.70
2024-02-24T15:40:14.674Z,10.70
2024-02-24T15:42:42.737Z,10.60
2024-02-24T15:45:11.102Z,10.60
2024-02-24T15:47:39.371Z,10.50
2024-02-24T15:50:08.554Z,10.30
2024-02-24T15:52:36.717Z,10.30
2024-02-24T15:55:04.984Z,10.20
2024-02-24T15:57:34.495Z,10.30
2024-02-24T16:00:02.798Z,10.30
2024-02-24T16:02:31.195Z,10.30
2024-02-24T16:04:59.358Z,10.30
2024-02-24T16:07:27.413Z,10.30
2024-02-24T16:09:55.481Z,10.30
2024-02-24T16:12:24.112Z,10.20
2024-02-24T16:14:53.669Z,10.20
2024-02-24T16:17:23.396Z,10.20
2024-02-24T16:19:52.206Z,10.10
2024-02-24T16:22:20.336Z,10.20
2024-02-24T16:24:48.396Z,10.10
2024-02-24T16:27:16.624Z,10.10
2024-02-24T16:29:44.919Z,10.00
2024-02-24T16:32:14.520Z,9.90
2024-02-24T16:34:42.629Z,9.90
2024-02-24T16:37:10.784Z,9.80
2024-02-24T16:39:38.935Z,9.90
2024-02-24T16:42:07.425Z,10.00
2024-02-24T16:44:35.713Z,9.80
2024-02-24T16:47:03.952Z,9.70
2024-02-24T16:49:33.577Z,9.60
2024-02-24T16:52:01.865Z,9.50
2024-02-24T16:54:29.953Z,9.30
2024-02-24T16:56:58.375Z,9.40
2024-02-24T16:59:26.703Z,9.40
2024-02-24T17:01:54.857Z,9.40
2024-02-24T17:04:23.007Z,9.40
2024-02-24T17:06:52.601Z,9.20
2024-02-24T17:09:20.749Z,9.10
2024-02-24T17:11:49.004Z,9.10
2024-02-24T17:14:17.222Z,9.20
2024-02-24T17:16:45.530Z,9.10
2024-02-24T17:19:13.888Z,9.00
2024-02-24T17:21:42.171Z,9.00
2024-02-24T17:24:11.813Z,9.00
2024-02-24T17:26:41.945Z,9.10
2024-02-24T17:29:10.074Z,9.10
2024-02-24T17:31:38.722Z,8.90
2024-02-24T17:34:06.997Z,8.80
2024-02-24T17:36:40.038Z,8.90
2024-02-24T17:39:08.334Z,8.90
2024-02-24T17:41:38.319Z,8.60
2024-02-24T17:44:06.499Z,8.50
2024-02-24T17:46:37.932Z,8.60
2024-02-24T17:49:07.747Z,8.70
2024-02-24T17:51:36.091Z,8.60
2024-02-24T17:54:04.403Z,8.60
2024-02-24T17:56:33.811Z,8.50
2024-02-24T17:59:03.473Z,8.60
2024-02-24T18:01:31.817Z,8.80
2024-02-24T18:04:01.122Z,8.70
2024-02-24T18:06:29.596Z,8.60
2024-02-24T18:08:57.929Z,8.60
2024-02-24T18:11:26.587Z,8.40
2024-02-24T18:13:55.011Z,8.50
2024-02-24T18:16:24.810Z,8.50
2024-02-24T18:18:53.245Z,8.40
2024-02-24T18:21:21.649Z,8.30
2024-02-24T18:23:49.881Z,8.30
2024-02-24T18:26:18.204Z,8.30
2024-02-24T18:28:46.442Z,8.20
2024-02-24T18:31:14.755Z,8.20
2024-02-24T18:33:45.117Z,8.20
2024-02-24T18:36:13.361Z,8.10
2024-02-24T18:38:41.576Z,8.10
2024-02-24T18:41:09.719Z,8.00
2024-02-24T18:43:37.873Z,7.90
2024-02-24T18:46:06.613Z,8.00
2024-02-24T18:48:34.887Z,7.90
2024-02-24T18:51:05.286Z,7.80
2024-02-24T18:53:35.440Z,7.90
2024-02-24T18:56:03.570Z,7.90
2024-02-24T18:58:32.278Z,8.00
2024-02-24T19:01:01.883Z,7.90
2024-02-24T19:03:30.285Z,7.90
2024-02-24T19:06:00.455Z,7.80
2024-02-24T19:08:30.530Z,7.70
2024-02-24T19:10:59.260Z,7.80
2024-02-24T19:13:28.379Z,7.80
2024-02-24T19:15:57.459Z,7.80
2024-02-24T19:18:25.984Z,7.90
2024-02-24T19:20:54.219Z,7.90
2024-02-24T19:23:22.664Z,8.00
2024-02-24T19:25:52.589Z,7.90
2024-02-24T19:28:20.897Z,7.80
2024-02-24T19:30:49.336Z,7.80
2024-02-24T19:33:17.988Z,7.80
2024-02-24T19:35:46.352Z,7.70
2024-02-24T19:38:14.886Z,7.70
2024-02-24T19:40:43.315Z,7.70
2024-02-24T19:43:12.890Z,7.80
2024-02-24T19:45:42.459Z,7.80
2024-02-24T19:48:12.099Z,7.70
2024-02-24T19:50:40.740Z,7.70
2024-02-24T19:53:08.974Z,7.60
2024-02-24T19:55:37.153Z,7.50
2024-02-24T19:58:14.081Z,7.30
2024-02-24T20:00:51.019Z,7.40
2024-02-24T20:03:19.165Z,7.40
2024-02-24T20:05:47.406Z,7.30
2024-02-24T20:08:15.778Z,7.40
2024-02-24T20:10:44.497Z,7.40
2024-02-24T20:13:12.558Z,7.40
2024-02-24T20:15:40.591Z,7.40
2024-02-24T20:18:10.178Z,7.40
2024-02-24T20:20:38.415Z,7.30
2024-02-24T20:23:06.618Z,7.30
2024-02-24T20:25:37.644Z,7.30
2024-02-24T20:28:06.934Z,7.30
2024-02-24T20:30:36.711Z,7.30
2024-02-24T20:33:05.318Z,7.30
2024-02-24T20:35:35.134Z,7.30
2024-02-24T20:38:03.971Z,7.20
2024-02-24T20:40:32.359Z,7.20
2024-02-24T20:43:00.681Z,7.20
2024-02-24T20:45:29.684Z,7.10
2024-02-24T20:47:58.050Z,7.00
2024-02-24T20:50:26.463Z,7.00
2024-02-24T20:52:56.191Z,7.00
2024-02-24T20:55:24.473Z,7.00
2024-02-24T20:57:52.919Z,7.00
2024-02-24T21:00:21.756Z,7.00
2024-02-24T21:02:50.272Z,7.00
2024-02-24T21:05:18.722Z,7.10
2024-02-24T21:07:47.193Z,7.00
2024-02-24T21:10:16.964Z,7.00
2024-02-24T21:12:45.092Z,7.00
2024-02-24T21:15:13.192Z,6.90
2024-02-24T21:17:41.372Z,6.80
2024-02-24T21:20:10.387Z,6.80
2024-02-24T21:22:38.556Z,6.70
2024-02-24T21:25:11.077Z,6.60
2024-02-24T21:27:41.207Z,6.50
2024-02-24T21:30:10.752Z,6.50
2024-02-24T21:32:39.550Z,6.50
2024-02-24T21:35:08.774Z,6.50
2024-02-24T21:37:36.987Z,6.40
2024-02-24T21:40:06.402Z,6.40
2024-02-24T21:42:34.606Z,6.30
2024-02-24T21:45:04.271Z,6.30
2024-02-24T21:47:32.924Z,6.20
2024-02-24T21:50:01.099Z,6.20
2024-02-24T21:52:29.264Z,6.10
2024-02-24T21:54:57.412Z,6.00
2024-02-24T21:57:25.504Z,6.10
2024-02-24T21:59:53.601Z,6.00
2024-02-24T22:02:23.395Z,5.90
2024-02-24T22:04:53.940Z,5.90
2024-02-24T22:07:23.831Z,5.70
2024-02-24T22:09:52.105Z,5.70
2024-02-24T22:12:20.540Z,5.60
2024-02-24T22:14:48.760Z,5.60
2024-02-24T22:17:18.993Z,5.80
2024-02-24T22:19:48.693Z,5.70
2024-02-24T22:22:16.956Z,5.60
2024-02-24T22:24:47.743Z,5.70
2024-02-24T22:27:16.989Z,5.60
2024-02-24T22:29:45.264Z,5.70
2024-02-24T22:32:13.359Z,5.60
2024-02-24T22:34:41.592Z,5.70
2024-02-24T22:37:11.354Z,5.70
2024-02-24T22:39:39.465Z,5.80
2024-02-24T22:42:07.690Z,5.60
2024-02-24T22:44:35.891Z,5.50
2024-02-24T22:47:04.271Z,5.50
2024-02-24T22:49:32.646Z,5.50
2024-02-24T22:52:00.831Z,5.40
2024-02-24T22:54:30.430Z,5.50
2024-02-24T22:56:58.578Z,5.40
2024-02-24T22:59:26.851Z,5.30
2024-02-24T23:01:55.099Z,5.30
2024-02-24T23:04:23.298Z,5.30
2024-02-24T23:06:51.501Z,5.30
2024-02-24T23:09:19.726Z,5.30
2024-02-24T23:11:49.363Z,5.30
2024-02-24T23:14:17.569Z,5.40
2024-02-24T23:16:45.731Z,5.40
2024-02-24T23:19:14.006Z,5.40
2024-02-24T23:21:42.887Z,5.40
2024-02-24T23:24:11.006Z,5.30
2024-02-24T23:26:39.234Z,5.20
2024-02-24T23:29:08.768Z,5.30
2024-02-24T23:31:36.935Z,5.20
2024-02-24T23:34:05.284Z,5.20
2024-02-24T23:36:33.645Z,5.30
2024-02-24T23:39:01.884Z,5.20
2024-02-24T23:41:31.490Z,5.20
2024-02-24T23:43:59.665Z,5.20
2024-02-24T23:46:29.249Z,5.20
2024-02-24T23:48:57.971Z,5.20
2024-02-24T23:51:26.244Z,5.20
2024-02-24T23:53:54.343Z,5.20
2024-02-24T23:56:23.190Z,5.30
2024-02-24T23:58:52.310Z,5.30
